Date,TemperatureHighF,TemperatureAvgF,TemperatureLowF,DewpointHighF,DewpointAvgF,DewpointLowF,HumidityHigh,HumidityAvg,HumidityLow,PressureMaxIn,PressureMinIn,WindSpeedMaxMPH,WindSpeedAvgMPH,GustSpeedMaxMPH,PrecipitationSumIn
2013-4-1,35.0,22.1,11.0,15.0,10.4,6.0,85,63,31,0.00,40.00,12,6,15,0.00
2013-4-2,39.0,27.0,19.0,19.0,14.9,11.0,81,61,38,0.00,40.00,22,12,27,0.00
2013-4-3,66.0,35.8,24.0,31.0,24.0,14.0,88,66,25,0.00,40.00,27,21,34,0.00
2013-4-4,37.0,30.6,24.0,28.0,21.6,18.0,91,71,47,0.00,40.00,18,12,24,0.00
2013-4-5,44.0,30.5,21.0,28.0,19.6,11.0,91,66,41,0.00,40.00,28,21,34,0.00
2013-4-6,50.0,35.4,30.0,38.0,30.3,27.0,92,82,52,0.00,40.00,21,11,29,0.00
2013-4-7,46.0,33.1,29.0,31.0,27.9,26.0,93,81,54,0.00,40.00,22,10,24,0.00
2013-4-8,31.0,24.8,15.0,30.0,21.5,7.0,93,87,67,0.00,40.00,25,12,30,0.00
2013-4-9,24.0,17.4,13.0,13.0,7.8,4.0,73,65,50,0.00,40.00,26,20,30,0.00
2013-4-10,29.0,24.4,21.0,17.0,13.3,10.0,74,62,44,0.00,40.00,31,13,37,0.00
2013-4-11,28.0,25.5,24.0,23.0,21.3,18.0,89,84,73,0.00,40.00,20,13,24,0.00
2013-4-12,30.0,25.7,23.0,24.0,21.0,19.0,90,82,63,0.00,40.00,18,12,22,0.00
2013-4-13,35.0,27.6,21.0,27.0,23.1,19.0,90,83,69,0.00,40.00,30,11,35,0.00
2013-4-14,28.0,25.4,24.0,26.0,22.8,21.0,92,89,83,0.00,40.00,37,28,44,0.00
2013-4-15,32.0,28.5,26.0,27.0,25.3,22.0,92,87,78,0.00,40.00,27,20,32,0.00
2013-4-16,34.0,27.8,24.0,24.0,22.0,20.0,89,79,63,0.00,40.00,11,7,13,0.00
2013-4-17,30.0,26.6,25.0,25.0,21.7,20.0,90,82,72,0.00,40.00,20,11,24,0.00
2013-4-18,31.0,24.9,17.0,21.0,16.9,13.0,86,72,52,0.00,40.00,27,18,32,0.00
2013-4-19,29.0,20.4,14.0,17.0,12.5,9.0,86,72,47,0.00,40.00,20,9,24,0.00
2013-4-20,31.0,24.0,15.0,25.0,14.8,5.0,88,68,57,0.00,40.00,27,17,33,0.00
2013-4-21,36.0,31.9,26.0,32.0,26.3,21.0,91,80,60,0.00,40.00,26,18,32,0.00
2013-4-22,28.0,25.4,17.0,22.0,17.6,11.0,86,72,54,0.00,40.00,22,14,26,0.00
2013-4-23,43.0,27.1,13.0,19.0,14.4,9.0,83,61,34,0.00,40.00,18,10,24,0.00
2013-4-24,40.0,30.3,21.0,30.0,20.8,14.0,89,68,44,0.00,40.00,34,16,40,0.00
2013-4-25,51.0,30.3,20.0,35.0,21.5,16.0,84,70,49,0.00,40.00,18,12,22,0.00
2013-4-26,73.0,51.5,36.0,37.0,31.9,25.0,89,56,17,0.00,40.00,16,8,20,0.00
2013-4-27,76.0,57.2,43.0,37.0,33.0,28.0,58,42,23,0.00,40.00,19,15,26,0.00
2013-4-28,63.0,56.1,41.0,38.0,31.0,18.0,46,38,29,0.00,40.00,26,16,35,0.00
2013-4-29,70.0,51.0,34.0,44.0,29.2,17.0,84,45,29,0.00,40.00,29,18,39,0.00
2013-4-30,50.0,44.0,33.0,44.0,30.2,19.0,91,61,35,0.00,40.00,38,23,46,0.00